sensor_id;sensor_type;location;lat;lon;timestamp;temperature;humidity
29093;DHT22;16167;48.768;14.984;2022-12-17T00:02:10;-2.30;76.70
29093;DHT22;16167;48.768;14.984;2022-12-17T00:04:57;-2.30;75.50
29093;DHT22;16167;48.768;14.984;2022-12-17T00:07:42;-2.20;74.10
29093;DHT22;16167;48.768;14.984;2022-12-17T00:10:42;-2.30;77.70
29093;DHT22;16167;48.768;14.984;2022-12-17T00:13:28;-2.30;79.20
29093;DHT22;16167;48.768;14.984;2022-12-17T00:16:13;-2.30;79.60
29093;DHT22;16167;48.768;14.984;2022-12-17T00:18:59;-2.30;79.70
29093;DHT22;16167;48.768;14.984;2022-12-17T00:21:45;-2.30;79.70
29093;DHT22;16167;48.768;14.984;2022-12-17T00:24:31;-2.30;80.60
29093;DHT22;16167;48.768;14.984;2022-12-17T00:27:31;-2.30;79.80
29093;DHT22;16167;48.768;14.984;2022-12-17T00:30:16;-2.30;74.20
29093;DHT22;16167;48.768;14.984;2022-12-17T00:33:02;-2.30;73.80
29093;DHT22;16167;48.768;14.984;2022-12-17T00:35:49;-2.30;71.50
29093;DHT22;16167;48.768;14.984;2022-12-17T00:38:36;-2.30;70.80
29093;DHT22;16167;48.768;14.984;2022-12-17T00:41:22;-2.30;69.70
29093;DHT22;16167;48.768;14.984;2022-12-17T00:44:07;-2.20;67.60
29093;DHT22;16167;48.768;14.984;2022-12-17T00:46:53;-2.20;64.60
29093;DHT22;16167;48.768;14.984;2022-12-17T00:49:38;-2.20;66.50
29093;DHT22;16167;48.768;14.984;2022-12-17T00:52:24;-2.20;67.00
29093;DHT22;16167;48.768;14.984;2022-12-17T00:55:11;-2.20;68.30
29093;DHT22;16167;48.768;14.984;2022-12-17T00:57:56;-2.30;67.40
29093;DHT22;16167;48.768;14.984;2022-12-17T01:00:42;-2.30;67.80
29093;DHT22;16167;48.768;14.984;2022-12-17T01:03:27;-2.30;68.20
29093;DHT22;16167;48.768;14.984;2022-12-17T01:06:27;-2.30;66.50
29093;DHT22;16167;48.768;14.984;2022-12-17T01:09:13;-2.30;64.00
29093;DHT22;16167;48.768;14.984;2022-12-17T01:12:00;-2.30;63.50
29093;DHT22;16167;48.768;14.984;2022-12-17T01:14:46;-2.30;63.80
29093;DHT22;16167;48.768;14.984;2022-12-17T01:17:32;-2.30;62.30
29093;DHT22;16167;48.768;14.984;2022-12-17T01:20:17;-2.30;64.60
29093;DHT22;16167;48.768;14.984;2022-12-17T01:23:06;-2.30;65.70
29093;DHT22;16167;48.768;14.984;2022-12-17T01:25:52;-2.30;64.10
29093;DHT22;16167;48.768;14.984;2022-12-17T01:28:39;-2.30;64.90
29093;DHT22;16167;48.768;14.984;2022-12-17T01:31:24;-2.30;68.70
29093;DHT22;16167;48.768;14.984;2022-12-17T01:34:09;-2.30;69.70
29093;DHT22;16167;48.768;14.984;2022-12-17T01:36:55;-2.30;66.50
29093;DHT22;16167;48.768;14.984;2022-12-17T01:39:41;-2.30;66.40
29093;DHT22;16167;48.768;14.984;2022-12-17T01:42:38;-2.30;67.00
29093;DHT22;16167;48.768;14.984;2022-12-17T01:45:25;-2.30;67.70
29093;DHT22;16167;48.768;14.984;2022-12-17T01:48:13;-2.30;69.20
29093;DHT22;16167;48.768;14.984;2022-12-17T01:51:00;-2.40;70.70
29093;DHT22;16167;48.768;14.984;2022-12-17T01:53:48;-2.30;70.00
29093;DHT22;16167;48.768;14.984;2022-12-17T01:56:33;-2.30;66.60
29093;DHT22;16167;48.768;14.984;2022-12-17T01:59:20;-2.30;63.60
29093;DHT22;16167;48.768;14.984;2022-12-17T02:02:06;-2.30;56.00
29093;DHT22;16167;48.768;14.984;2022-12-17T02:04:52;-2.30;55.90
29093;DHT22;16167;48.768;14.984;2022-12-17T02:07:41;-2.30;53.50
29093;DHT22;16167;48.768;14.984;2022-12-17T02:10:28;-2.30;51.50
29093;DHT22;16167;48.768;14.984;2022-12-17T02:13:18;-2.30;54.90
29093;DHT22;16167;48.768;14.984;2022-12-17T02:16:07;-2.30;52.00
29093;DHT22;16167;48.768;14.984;2022-12-17T02:18:56;-2.40;55.00
29093;DHT22;16167;48.768;14.984;2022-12-17T02:21:51;-2.40;55.50
29093;DHT22;16167;48.768;14.984;2022-12-17T02:24:49;-2.40;54.40
29093;DHT22;16167;48.768;14.984;2022-12-17T02:27:39;-2.40;55.20
29093;DHT22;16167;48.768;14.984;2022-12-17T02:30:25;-2.50;55.90
29093;DHT22;16167;48.768;14.984;2022-12-17T02:33:10;-2.50;57.00
29093;DHT22;16167;48.768;14.984;2022-12-17T02:35:56;-2.50;59.70
29093;DHT22;16167;48.768;14.984;2022-12-17T02:38:43;-2.50;60.40
29093;DHT22;16167;48.768;14.984;2022-12-17T02:41:30;-2.50;60.70
29093;DHT22;16167;48.768;14.984;2022-12-17T02:44:18;-2.50;59.60
29093;DHT22;16167;48.768;14.984;2022-12-17T02:47:05;-2.50;60.60
29093;DHT22;16167;48.768;14.984;2022-12-17T02:49:51;-2.50;60.90
29093;DHT22;16167;48.768;14.984;2022-12-17T02:52:38;-2.50;60.10
29093;DHT22;16167;48.768;14.984;2022-12-17T02:55:23;-2.50;61.60
29093;DHT22;16167;48.768;14.984;2022-12-17T02:58:08;-2.50;60.90
29093;DHT22;16167;48.768;14.984;2022-12-17T03:00:55;-2.50;62.70
29093;DHT22;16167;48.768;14.984;2022-12-17T03:03:41;-2.50;62.00
29093;DHT22;16167;48.768;14.984;2022-12-17T03:06:26;-2.60;65.60
29093;DHT22;16167;48.768;14.984;2022-12-17T03:09:11;-2.60;66.20
29093;DHT22;16167;48.768;14.984;2022-12-17T03:11:56;-2.50;65.40
29093;DHT22;16167;48.768;14.984;2022-12-17T03:14:42;-2.60;65.40
29093;DHT22;16167;48.768;14.984;2022-12-17T03:17:29;-2.60;66.90
29093;DHT22;16167;48.768;14.984;2022-12-17T03:20:14;-2.50;67.70
29093;DHT22;16167;48.768;14.984;2022-12-17T03:23:00;-2.50;67.20
29093;DHT22;16167;48.768;14.984;2022-12-17T03:25:46;-2.50;65.90
29093;DHT22;16167;48.768;14.984;2022-12-17T03:28:31;-2.60;65.10
29093;DHT22;16167;48.768;14.984;2022-12-17T03:31:16;-2.60;67.50
29093;DHT22;16167;48.768;14.984;2022-12-17T03:34:03;-2.50;67.70
29093;DHT22;16167;48.768;14.984;2022-12-17T03:36:48;-2.60;66.50
29093;DHT22;16167;48.768;14.984;2022-12-17T03:39:34;-2.60;68.30
29093;DHT22;16167;48.768;14.984;2022-12-17T03:42:18;-2.60;69.00
29093;DHT22;16167;48.768;14.984;2022-12-17T03:45:03;-2.60;68.80
29093;DHT22;16167;48.768;14.984;2022-12-17T03:47:49;-2.50;69.40
29093;DHT22;16167;48.768;14.984;2022-12-17T03:50:45;-2.50;70.10
29093;DHT22;16167;48.768;14.984;2022-12-17T03:53:30;-2.60;72.00
29093;DHT22;16167;48.768;14.984;2022-12-17T03:56:15;-2.60;72.70
29093;DHT22;16167;48.768;14.984;2022-12-17T03:59:06;-2.60;73.00
29093;DHT22;16167;48.768;14.984;2022-12-17T04:01:52;-2.60;75.50
29093;DHT22;16167;48.768;14.984;2022-12-17T04:04:38;-2.50;77.50
29093;DHT22;16167;48.768;14.984;2022-12-17T04:07:24;-2.60;76.30
29093;DHT22;16167;48.768;14.984;2022-12-17T04:10:10;-2.60;75.20
29093;DHT22;16167;48.768;14.984;2022-12-17T04:12:55;-2.50;74.30
29093;DHT22;16167;48.768;14.984;2022-12-17T04:15:40;-2.50;70.80
29093;DHT22;16167;48.768;14.984;2022-12-17T04:18:26;-2.50;69.90
29093;DHT22;16167;48.768;14.984;2022-12-17T04:21:11;-2.50;68.80
29093;DHT22;16167;48.768;14.984;2022-12-17T04:23:58;-2.50;68.00
29093;DHT22;16167;48.768;14.984;2022-12-17T04:26:43;-2.50;69.60
29093;DHT22;16167;48.768;14.984;2022-12-17T04:29:29;-2.50;71.00
29093;DHT22;16167;48.768;14.984;2022-12-17T04:32:14;-2.50;71.90
29093;DHT22;16167;48.768;14.984;2022-12-17T04:35:01;-2.50;74.80
29093;DHT22;16167;48.768;14.984;2022-12-17T04:37:46;-2.50;73.50
29093;DHT22;16167;48.768;14.984;2022-12-17T04:40:33;-2.50;72.10
29093;DHT22;16167;48.768;14.984;2022-12-17T04:43:18;-2.60;72.80
29093;DHT22;16167;48.768;14.984;2022-12-17T04:46:04;-2.50;67.10
29093;DHT22;16167;48.768;14.984;2022-12-17T04:48:50;-2.50;67.20
29093;DHT22;16167;48.768;14.984;2022-12-17T04:51:35;-2.50;65.80
29093;DHT22;16167;48.768;14.984;2022-12-17T04:54:20;-2.40;62.50
29093;DHT22;16167;48.768;14.984;2022-12-17T04:57:07;-2.50;63.20
29093;DHT22;16167;48.768;14.984;2022-12-17T04:59:52;-2.50;61.90
29093;DHT22;16167;48.768;14.984;2022-12-17T05:02:37;-2.50;60.90
29093;DHT22;16167;48.768;14.984;2022-12-17T05:05:23;-2.50;59.40
29093;DHT22;16167;48.768;14.984;2022-12-17T05:08:08;-2.50;58.70
29093;DHT22;16167;48.768;14.984;2022-12-17T05:10:53;-2.50;58.90
29093;DHT22;16167;48.768;14.984;2022-12-17T05:13:51;-2.50;59.20
29093;DHT22;16167;48.768;14.984;2022-12-17T05:16:37;-2.50;60.80
29093;DHT22;16167;48.768;14.984;2022-12-17T05:19:22;-2.60;60.70
29093;DHT22;16167;48.768;14.984;2022-12-17T05:22:08;-2.50;60.90
29093;DHT22;16167;48.768;14.984;2022-12-17T05:24:53;-2.50;60.40
29093;DHT22;16167;48.768;14.984;2022-12-17T05:27:38;-2.50;61.70
29093;DHT22;16167;48.768;14.984;2022-12-17T05:30:25;-2.50;60.30
29093;DHT22;16167;48.768;14.984;2022-12-17T05:33:11;-2.60;62.10
29093;DHT22;16167;48.768;14.984;2022-12-17T05:35:58;-2.50;60.00
29093;DHT22;16167;48.768;14.984;2022-12-17T05:38:43;-2.60;59.80
29093;DHT22;16167;48.768;14.984;2022-12-17T05:41:28;-2.60;57.80
29093;DHT22;16167;48.768;14.984;2022-12-17T05:44:14;-2.60;58.00
29093;DHT22;16167;48.768;14.984;2022-12-17T05:47:01;-2.50;57.60
29093;DHT22;16167;48.768;14.984;2022-12-17T05:49:46;-2.50;56.80
29093;DHT22;16167;48.768;14.984;2022-12-17T05:52:31;-2.50;57.00
29093;DHT22;16167;48.768;14.984;2022-12-17T05:55:17;-2.60;59.00
29093;DHT22;16167;48.768;14.984;2022-12-17T05:58:02;-2.50;58.40
29093;DHT22;16167;48.768;14.984;2022-12-17T06:00:47;-2.60;57.80
29093;DHT22;16167;48.768;14.984;2022-12-17T06:03:34;-2.60;58.20
29093;DHT22;16167;48.768;14.984;2022-12-17T06:06:19;-2.60;60.90
29093;DHT22;16167;48.768;14.984;2022-12-17T06:09:05;-2.60;62.00
29093;DHT22;16167;48.768;14.984;2022-12-17T06:11:50;-2.60;60.70
29093;DHT22;16167;48.768;14.984;2022-12-17T06:14:35;-2.70;61.90
29093;DHT22;16167;48.768;14.984;2022-12-17T06:17:20;-2.70;57.20
29093;DHT22;16167;48.768;14.984;2022-12-17T06:20:08;-2.70;56.60
29093;DHT22;16167;48.768;14.984;2022-12-17T06:22:59;-2.70;54.10
29093;DHT22;16167;48.768;14.984;2022-12-17T06:25:45;-2.70;55.80
29093;DHT22;16167;48.768;14.984;2022-12-17T06:28:30;-2.70;57.70
29093;DHT22;16167;48.768;14.984;2022-12-17T06:31:15;-2.70;57.50
29093;DHT22;16167;48.768;14.984;2022-12-17T06:34:01;-2.70;57.70
29093;DHT22;16167;48.768;14.984;2022-12-17T06:36:48;-2.70;56.20
29093;DHT22;16167;48.768;14.984;2022-12-17T06:39:33;-2.70;55.30
29093;DHT22;16167;48.768;14.984;2022-12-17T06:42:19;-2.70;54.70
29093;DHT22;16167;48.768;14.984;2022-12-17T06:45:04;-2.70;55.90
29093;DHT22;16167;48.768;14.984;2022-12-17T06:47:49;-2.80;57.40
29093;DHT22;16167;48.768;14.984;2022-12-17T06:50:35;-2.80;58.20
29093;DHT22;16167;48.768;14.984;2022-12-17T06:53:22;-2.80;58.40
29093;DHT22;16167;48.768;14.984;2022-12-17T06:56:07;-2.70;59.30
29093;DHT22;16167;48.768;14.984;2022-12-17T06:58:53;-2.80;59.20
29093;DHT22;16167;48.768;14.984;2022-12-17T07:01:38;-2.80;57.50
29093;DHT22;16167;48.768;14.984;2022-12-17T07:04:23;-2.80;58.30
29093;DHT22;16167;48.768;14.984;2022-12-17T07:07:09;-2.80;52.10
29093;DHT22;16167;48.768;14.984;2022-12-17T07:09:56;-2.70;47.40
29093;DHT22;16167;48.768;14.984;2022-12-17T07:12:41;-2.80;49.60
29093;DHT22;16167;48.768;14.984;2022-12-17T07:15:27;-2.80;49.10
29093;DHT22;16167;48.768;14.984;2022-12-17T07:18:12;-2.70;48.30
29093;DHT22;16167;48.768;14.984;2022-12-17T07:20:57;-2.70;44.90
29093;DHT22;16167;48.768;14.984;2022-12-17T07:23:43;-2.70;46.60
29093;DHT22;16167;48.768;14.984;2022-12-17T07:26:29;-2.70;48.20
29093;DHT22;16167;48.768;14.984;2022-12-17T07:29:15;-2.70;50.30
29093;DHT22;16167;48.768;14.984;2022-12-17T07:32:00;-2.70;49.60
29093;DHT22;16167;48.768;14.984;2022-12-17T07:34:45;-2.70;48.00
29093;DHT22;16167;48.768;14.984;2022-12-17T07:37:30;-2.70;51.50
29093;DHT22;16167;48.768;14.984;2022-12-17T07:40:30;-2.70;47.60
29093;DHT22;16167;48.768;14.984;2022-12-17T07:43:17;-2.70;51.80
29093;DHT22;16167;48.768;14.984;2022-12-17T07:46:19;-2.60;50.10
29093;DHT22;16167;48.768;14.984;2022-12-17T07:49:04;-2.60;46.40
29093;DHT22;16167;48.768;14.984;2022-12-17T07:52:04;-2.50;46.20
29093;DHT22;16167;48.768;14.984;2022-12-17T07:54:49;-2.50;42.20
29093;DHT22;16167;48.768;14.984;2022-12-17T07:57:37;-2.50;39.00
29093;DHT22;16167;48.768;14.984;2022-12-17T08:00:24;-2.50;35.80
29093;DHT22;16167;48.768;14.984;2022-12-17T08:03:15;-2.40;34.70
29093;DHT22;16167;48.768;14.984;2022-12-17T08:06:01;-2.40;32.40
29093;DHT22;16167;48.768;14.984;2022-12-17T08:08:46;-2.40;34.90
29093;DHT22;16167;48.768;14.984;2022-12-17T08:11:31;-2.30;36.80
29093;DHT22;16167;48.768;14.984;2022-12-17T08:14:17;-2.30;33.60
29093;DHT22;16167;48.768;14.984;2022-12-17T08:17:03;-2.30;34.10
29093;DHT22;16167;48.768;14.984;2022-12-17T08:19:49;-2.30;33.90
29093;DHT22;16167;48.768;14.984;2022-12-17T08:22:35;-2.20;32.00
29093;DHT22;16167;48.768;14.984;2022-12-17T08:25:20;-2.20;30.50
29093;DHT22;16167;48.768;14.984;2022-12-17T08:28:06;-2.10;30.50
29093;DHT22;16167;48.768;14.984;2022-12-17T08:31:12;-2.10;25.90
29093;DHT22;16167;48.768;14.984;2022-12-17T08:33:58;-2.00;24.60
29093;DHT22;16167;48.768;14.984;2022-12-17T08:36:43;-2.00;17.60
29093;DHT22;16167;48.768;14.984;2022-12-17T08:39:29;-1.90;19.30
29093;DHT22;16167;48.768;14.984;2022-12-17T08:42:14;-1.80;4.90
29093;DHT22;16167;48.768;14.984;2022-12-17T08:44:59;-1.70;5.90
29093;DHT22;16167;48.768;14.984;2022-12-17T08:47:44;-1.60;7.50
29093;DHT22;16167;48.768;14.984;2022-12-17T08:50:31;-1.50;1.00
29093;DHT22;16167;48.768;14.984;2022-12-17T08:53:16;-1.50;1.00
29093;DHT22;16167;48.768;14.984;2022-12-17T08:56:02;-1.50;1.00
29093;DHT22;16167;48.768;14.984;2022-12-17T08:58:48;-1.40;1.00
29093;DHT22;16167;48.768;14.984;2022-12-17T09:01:33;-1.40;1.00
29093;DHT22;16167;48.768;14.984;2022-12-17T09:04:19;-1.30;1.00
29093;DHT22;16167;48.768;14.984;2022-12-17T09:07:06;-1.30;1.00
29093;DHT22;16167;48.768;14.984;2022-12-17T09:09:51;-1.30;1.00
29093;DHT22;16167;48.768;14.984;2022-12-17T09:12:36;-1.20;1.00
29093;DHT22;16167;48.768;14.984;2022-12-17T09:15:29;-1.20;1.00
29093;DHT22;16167;48.768;14.984;2022-12-17T09:18:17;-1.10;1.00
29093;DHT22;16167;48.768;14.984;2022-12-17T09:21:02;-1.10;1.00
29093;DHT22;16167;48.768;14.984;2022-12-17T09:23:49;-1.10;1.00
29093;DHT22;16167;48.768;14.984;2022-12-17T09:26:35;-1.00;1.00
29093;DHT22;16167;48.768;14.984;2022-12-17T09:29:20;-1.00;1.00
29093;DHT22;16167;48.768;14.984;2022-12-17T09:32:06;-0.90;1.00
29093;DHT22;16167;48.768;14.984;2022-12-17T09:34:51;-0.90;1.00
29093;DHT22;16167;48.768;14.984;2022-12-17T09:37:37;-0.90;1.00
29093;DHT22;16167;48.768;14.984;2022-12-17T09:40:24;-0.90;1.00
29093;DHT22;16167;48.768;14.984;2022-12-17T09:43:13;-0.80;1.00
29093;DHT22;16167;48.768;14.984;2022-12-17T09:46:01;-0.80;1.00
29093;DHT22;16167;48.768;14.984;2022-12-17T09:48:51;-0.80;1.00
29093;DHT22;16167;48.768;14.984;2022-12-17T09:51:40;-0.70;1.00
29093;DHT22;16167;48.768;14.984;2022-12-17T09:54:27;-0.70;1.00
29093;DHT22;16167;48.768;14.984;2022-12-17T09:57:16;-0.80;1.00
29093;DHT22;16167;48.768;14.984;2022-12-17T10:00:05;-0.80;1.00
29093;DHT22;16167;48.768;14.984;2022-12-17T10:02:51;-0.80;1.00
29093;DHT22;16167;48.768;14.984;2022-12-17T10:05:36;-0.80;1.00
29093;DHT22;16167;48.768;14.984;2022-12-17T10:08:22;-0.70;1.00
29093;DHT22;16167;48.768;14.984;2022-12-17T10:11:11;-0.60;1.00
29093;DHT22;16167;48.768;14.984;2022-12-17T10:14:02;-0.60;1.00
29093;DHT22;16167;48.768;14.984;2022-12-17T10:16:48;-0.40;1.00
29093;DHT22;16167;48.768;14.984;2022-12-17T10:19:38;-0.20;1.00
29093;DHT22;16167;48.768;14.984;2022-12-17T10:22:24;-0.20;1.00
29093;DHT22;16167;48.768;14.984;2022-12-17T10:25:21;-0.10;1.00
29093;DHT22;16167;48.768;14.984;2022-12-17T10:28:09;0.10;1.00
29093;DHT22;16167;48.768;14.984;2022-12-17T10:30:56;0.20;1.00
29093;DHT22;16167;48.768;14.984;2022-12-17T10:33:42;0.20;1.00
29093;DHT22;16167;48.768;14.984;2022-12-17T10:36:27;0.20;1.00
29093;DHT22;16167;48.768;14.984;2022-12-17T10:39:17;0.20;1.00
29093;DHT22;16167;48.768;14.984;2022-12-17T10:42:02;0.20;1.00
29093;DHT22;16167;48.768;14.984;2022-12-17T10:44:48;0.20;1.00
29093;DHT22;16167;48.768;14.984;2022-12-17T10:47:35;0.30;1.00
29093;DHT22;16167;48.768;14.984;2022-12-17T10:50:27;0.30;1.00
29093;DHT22;16167;48.768;14.984;2022-12-17T10:53:16;0.30;1.00
29093;DHT22;16167;48.768;14.984;2022-12-17T10:56:03;0.20;1.00
29093;DHT22;16167;48.768;14.984;2022-12-17T10:58:50;0.10;1.00
29093;DHT22;16167;48.768;14.984;2022-12-17T11:01:36;0.00;1.00
29093;DHT22;16167;48.768;14.984;2022-12-17T11:04:25;0.10;1.00
29093;DHT22;16167;48.768;14.984;2022-12-17T11:07:12;0.20;1.00
29093;DHT22;16167;48.768;14.984;2022-12-17T11:09:59;0.50;1.00
29093;DHT22;16167;48.768;14.984;2022-12-17T11:12:45;0.70;1.00
29093;DHT22;16167;48.768;14.984;2022-12-17T11:15:32;1.00;1.00
29093;DHT22;16167;48.768;14.984;2022-12-17T11:18:18;1.10;1.00
29093;DHT22;16167;48.768;14.984;2022-12-17T11:21:06;1.20;1.00
29093;DHT22;16167;48.768;14.984;2022-12-17T11:23:54;1.20;1.00
29093;DHT22;16167;48.768;14.984;2022-12-17T11:26:49;1.00;1.00
29093;DHT22;16167;48.768;14.984;2022-12-17T11:29:35;0.90;1.00
29093;DHT22;16167;48.768;14.984;2022-12-17T11:35:25;0.70;1.00
29093;DHT22;16167;48.768;14.984;2022-12-17T11:38:28;0.70;1.00
29093;DHT22;16167;48.768;14.984;2022-12-17T11:41:15;0.70;1.00
29093;DHT22;16167;48.768;14.984;2022-12-17T11:44:04;0.70;1.00
29093;DHT22;16167;48.768;14.984;2022-12-17T11:46:55;0.70;1.00
29093;DHT22;16167;48.768;14.984;2022-12-17T11:49:44;0.80;1.00
29093;DHT22;16167;48.768;14.984;2022-12-17T11:52:33;0.80;1.00
29093;DHT22;16167;48.768;14.984;2022-12-17T11:55:24;0.80;1.00
29093;DHT22;16167;48.768;14.984;2022-12-17T11:58:14;0.60;1.00
29093;DHT22;16167;48.768;14.984;2022-12-17T12:01:05;0.50;1.00
29093;DHT22;16167;48.768;14.984;2022-12-17T12:03:54;0.50;1.00
29093;DHT22;16167;48.768;14.984;2022-12-17T12:06:45;0.70;1.00
29093;DHT22;16167;48.768;14.984;2022-12-17T12:09:33;0.70;1.00
29093;DHT22;16167;48.768;14.984;2022-12-17T12:12:27;0.80;1.00
29093;DHT22;16167;48.768;14.984;2022-12-17T12:15:19;0.90;1.00
29093;DHT22;16167;48.768;14.984;2022-12-17T12:18:08;1.00;1.00
29093;DHT22;16167;48.768;14.984;2022-12-17T12:21:02;0.90;1.00
29093;DHT22;16167;48.768;14.984;2022-12-17T12:23:58;0.70;1.00
29093;DHT22;16167;48.768;14.984;2022-12-17T12:26:48;0.70;1.00
29093;DHT22;16167;48.768;14.984;2022-12-17T12:29:38;0.80;1.00
29093;DHT22;16167;48.768;14.984;2022-12-17T12:32:26;0.70;1.00
29093;DHT22;16167;48.768;14.984;2022-12-17T12:35:15;0.70;1.00
29093;DHT22;16167;48.768;14.984;2022-12-17T12:38:02;0.60;1.00
29093;DHT22;16167;48.768;14.984;2022-12-17T12:40:51;0.40;1.00
29093;DHT22;16167;48.768;14.984;2022-12-17T12:43:39;0.30;1.00
29093;DHT22;16167;48.768;14.984;2022-12-17T12:46:29;0.00;1.00
29093;DHT22;16167;48.768;14.984;2022-12-17T12:49:33;-0.10;1.00
29093;DHT22;16167;48.768;14.984;2022-12-17T12:52:19;-0.20;1.00
29093;DHT22;16167;48.768;14.984;2022-12-17T12:55:06;-0.40;1.00
29093;DHT22;16167;48.768;14.984;2022-12-17T12:57:55;-0.50;1.00
29093;DHT22;16167;48.768;14.984;2022-12-17T13:00:50;-0.60;1.00
29093;DHT22;16167;48.768;14.984;2022-12-17T13:03:38;-0.60;1.00
29093;DHT22;16167;48.768;14.984;2022-12-17T13:06:37;-0.60;1.00
29093;DHT22;16167;48.768;14.984;2022-12-17T13:09:16;-0.70;1.00
29093;DHT22;16167;48.768;14.984;2022-12-17T13:11:46;-0.70;1.00
29093;DHT22;16167;48.768;14.984;2022-12-17T13:14:15;-0.70;1.00
29093;DHT22;16167;48.768;14.984;2022-12-17T13:16:49;-0.70;1.00
29093;DHT22;16167;48.768;14.984;2022-12-17T13:19:30;-0.70;1.00
29093;DHT22;16167;48.768;14.984;2022-12-17T13:22:08;-0.60;1.00
29093;DHT22;16167;48.768;14.984;2022-12-17T13:24:36;-0.60;1.00
29093;DHT22;16167;48.768;14.984;2022-12-17T13:29:47;-0.40;1.00
29093;DHT22;16167;48.768;14.984;2022-12-17T13:32:17;-0.40;1.00
29093;DHT22;16167;48.768;14.984;2022-12-17T13:34:55;-0.50;1.00
29093;DHT22;16167;48.768;14.984;2022-12-17T13:37:34;-0.60;1.00
29093;DHT22;16167;48.768;14.984;2022-12-17T13:40:17;-0.70;1.00
29093;DHT22;16167;48.768;14.984;2022-12-17T13:42:46;-0.70;1.00
29093;DHT22;16167;48.768;14.984;2022-12-17T13:45:16;-0.80;1.00
29093;DHT22;16167;48.768;14.984;2022-12-17T13:47:50;-0.90;1.00
29093;DHT22;16167;48.768;14.984;2022-12-17T13:50:21;-1.00;1.00
29093;DHT22;16167;48.768;14.984;2022-12-17T13:53:08;-1.00;1.00
29093;DHT22;16167;48.768;14.984;2022-12-17T13:55:36;-1.10;1.00
29093;DHT22;16167;48.768;14.984;2022-12-17T13:58:04;-1.10;1.00
29093;DHT22;16167;48.768;14.984;2022-12-17T14:00:32;-1.10;1.00
29093;DHT22;16167;48.768;14.984;2022-12-17T14:03:08;-1.20;1.00
29093;DHT22;16167;48.768;14.984;2022-12-17T14:05:38;-1.20;1.00
29093;DHT22;16167;48.768;14.984;2022-12-17T14:08:11;-1.20;1.00
29093;DHT22;16167;48.768;14.984;2022-12-17T14:10:42;-1.20;1.00
29093;DHT22;16167;48.768;14.984;2022-12-17T14:13:12;-1.30;1.00
29093;DHT22;16167;48.768;14.984;2022-12-17T14:15:43;-1.30;1.00
29093;DHT22;16167;48.768;14.984;2022-12-17T14:18:12;-1.30;1.00
29093;DHT22;16167;48.768;14.984;2022-12-17T14:20:42;-1.40;1.00
29093;DHT22;16167;48.768;14.984;2022-12-17T14:23:11;-1.40;1.00
29093;DHT22;16167;48.768;14.984;2022-12-17T14:25:42;-1.40;1.00
29093;DHT22;16167;48.768;14.984;2022-12-17T14:28:19;-1.40;1.90
29093;DHT22;16167;48.768;14.984;2022-12-17T14:30:47;-1.50;3.20
29093;DHT22;16167;48.768;14.984;2022-12-17T14:33:35;-1.50;3.00
29093;DHT22;16167;48.768;14.984;2022-12-17T14:36:06;-1.50;6.30
29093;DHT22;16167;48.768;14.984;2022-12-17T14:38:37;-1.60;9.00
29093;DHT22;16167;48.768;14.984;2022-12-17T14:41:09;-1.60;6.20
29093;DHT22;16167;48.768;14.984;2022-12-17T14:43:55;-1.60;7.70
29093;DHT22;16167;48.768;14.984;2022-12-17T14:46:23;-1.60;4.60
29093;DHT22;16167;48.768;14.984;2022-12-17T14:48:52;-1.70;1.00
29093;DHT22;16167;48.768;14.984;2022-12-17T14:51:33;-1.70;1.00
29093;DHT22;16167;48.768;14.984;2022-12-17T14:54:17;-1.70;1.00
29093;DHT22;16167;48.768;14.984;2022-12-17T14:56:46;-1.70;1.00
29093;DHT22;16167;48.768;14.984;2022-12-17T14:59:21;-1.80;1.00
29093;DHT22;16167;48.768;14.984;2022-12-17T15:01:50;-1.80;1.00
29093;DHT22;16167;48.768;14.984;2022-12-17T15:04:22;-1.80;1.00
29093;DHT22;16167;48.768;14.984;2022-12-17T15:06:52;-1.80;1.00
29093;DHT22;16167;48.768;14.984;2022-12-17T15:09:20;-1.80;2.80
29093;DHT22;16167;48.768;14.984;2022-12-17T15:11:48;-1.90;8.70
29093;DHT22;16167;48.768;14.984;2022-12-17T15:14:16;-1.90;10.70
29093;DHT22;16167;48.768;14.984;2022-12-17T15:16:43;-2.00;12.50
29093;DHT22;16167;48.768;14.984;2022-12-17T15:19:12;-2.00;12.50
29093;DHT22;16167;48.768;14.984;2022-12-17T15:21:39;-2.10;12.50
29093;DHT22;16167;48.768;14.984;2022-12-17T15:24:10;-2.10;12.80
29093;DHT22;16167;48.768;14.984;2022-12-17T15:26:40;-2.00;7.70
29093;DHT22;16167;48.768;14.984;2022-12-17T15:29:08;-2.00;10.20
29093;DHT22;16167;48.768;14.984;2022-12-17T15:31:36;-2.10;12.20
29093;DHT22;16167;48.768;14.984;2022-12-17T15:34:04;-2.10;12.40
29093;DHT22;16167;48.768;14.984;2022-12-17T15:36:32;-2.00;11.30
29093;DHT22;16167;48.768;14.984;2022-12-17T15:39:00;-2.10;13.90
29093;DHT22;16167;48.768;14.984;2022-12-17T15:41:29;-2.10;14.00
29093;DHT22;16167;48.768;14.984;2022-12-17T15:44:10;-2.10;14.30
29093;DHT22;16167;48.768;14.984;2022-12-17T15:46:38;-2.10;14.40
29093;DHT22;16167;48.768;14.984;2022-12-17T15:49:06;-2.10;17.40
29093;DHT22;16167;48.768;14.984;2022-12-17T15:51:34;-2.10;17.20
29093;DHT22;16167;48.768;14.984;2022-12-17T15:54:02;-2.10;17.70
29093;DHT22;16167;48.768;14.984;2022-12-17T15:56:31;-2.10;17.90
29093;DHT22;16167;48.768;14.984;2022-12-17T15:59:00;-2.10;19.80
29093;DHT22;16167;48.768;14.984;2022-12-17T16:01:28;-2.20;20.10
29093;DHT22;16167;48.768;14.984;2022-12-17T16:03:56;-2.20;20.80
29093;DHT22;16167;48.768;14.984;2022-12-17T16:06:24;-2.20;19.40
29093;DHT22;16167;48.768;14.984;2022-12-17T16:08:51;-2.20;18.50
29093;DHT22;16167;48.768;14.984;2022-12-17T16:11:19;-2.20;19.30
29093;DHT22;16167;48.768;14.984;2022-12-17T16:13:51;-2.20;17.20
29093;DHT22;16167;48.768;14.984;2022-12-17T16:16:19;-2.20;16.40
29093;DHT22;16167;48.768;14.984;2022-12-17T16:18:48;-2.20;17.90
29093;DHT22;16167;48.768;14.984;2022-12-17T16:21:16;-2.20;17.40
29093;DHT22;16167;48.768;14.984;2022-12-17T16:23:44;-2.20;16.80
29093;DHT22;16167;48.768;14.984;2022-12-17T16:26:12;-2.20;15.90
29093;DHT22;16167;48.768;14.984;2022-12-17T16:28:40;-2.30;12.70
29093;DHT22;16167;48.768;14.984;2022-12-17T16:31:09;-2.20;14.00
29093;DHT22;16167;48.768;14.984;2022-12-17T16:33:39;-2.30;17.80
29093;DHT22;16167;48.768;14.984;2022-12-17T16:36:07;-2.30;16.00
29093;DHT22;16167;48.768;14.984;2022-12-17T16:38:40;-2.30;20.20
29093;DHT22;16167;48.768;14.984;2022-12-17T16:41:09;-2.30;19.20
29093;DHT22;16167;48.768;14.984;2022-12-17T16:43:36;-2.30;17.10
29093;DHT22;16167;48.768;14.984;2022-12-17T16:46:05;-2.30;20.50
29093;DHT22;16167;48.768;14.984;2022-12-17T16:48:39;-2.40;20.80
29093;DHT22;16167;48.768;14.984;2022-12-17T16:51:13;-2.40;20.20
29093;DHT22;16167;48.768;14.984;2022-12-17T16:53:41;-2.40;22.80
29093;DHT22;16167;48.768;14.984;2022-12-17T16:56:13;-2.40;24.80
29093;DHT22;16167;48.768;14.984;2022-12-17T16:58:41;-2.40;24.30
29093;DHT22;16167;48.768;14.984;2022-12-17T17:01:09;-2.40;24.20
29093;DHT22;16167;48.768;14.984;2022-12-17T17:03:39;-2.50;28.70
29093;DHT22;16167;48.768;14.984;2022-12-17T17:06:07;-2.50;28.90
29093;DHT22;16167;48.768;14.984;2022-12-17T17:08:35;-2.50;28.20